sensor_id;sensor_type;location;lat;lon;timestamp;P1;durP1;ratioP1;P2;durP2;ratioP2
79122;SDS011;68526;44.600;26.032;2023-09-19T00:00:07;8.95;;;6.70;;
79122;SDS011;68526;44.600;26.032;2023-09-19T00:00:23;10.68;;;7.00;;
79122;SDS011;68526;44.600;26.032;2023-09-19T00:00:41;9.93;;;6.97;;
79122;SDS011;68526;44.600;26.032;2023-09-19T00:00:59;8.63;;;6.80;;
79122;SDS011;68526;44.600;26.032;2023-09-19T00:01:15;10.67;;;6.97;;
79122;SDS011;68526;44.600;26.032;2023-09-19T00:01:30;10.82;;;7.10;;
79122;SDS011;68526;44.600;26.032;2023-09-19T00:01:46;10.43;;;7.50;;
79122;SDS011;68526;44.600;26.032;2023-09-19T00:02:02;9.88;;;7.68;;
79122;SDS011;68526;44.600;26.032;2023-09-19T00:02:19;9.45;;;6.93;;
79122;SDS011;68526;44.600;26.032;2023-09-19T00:02:35;9.73;;;6.47;;
79122;SDS011;68526;44.600;26.032;2023-09-19T00:02:52;9.02;;;6.55;;
79122;SDS011;68526;44.600;26.032;2023-09-19T00:03:09;9.20;;;7.05;;
79122;SDS011;68526;44.600;26.032;2023-09-19T00:03:26;10.13;;;7.10;;
79122;SDS011;68526;44.600;26.032;2023-09-19T00:03:43;10.45;;;7.40;;
79122;SDS011;68526;44.600;26.032;2023-09-19T00:03:59;9.75;;;7.00;;
79122;SDS011;68526;44.600;26.032;2023-09-19T00:04:16;10.57;;;6.75;;
79122;SDS011;68526;44.600;26.032;2023-09-19T00:04:34;12.35;;;7.30;;
79122;SDS011;68526;44.600;26.032;2023-09-19T00:04:50;12.15;;;7.22;;
79122;SDS011;68526;44.600;26.032;2023-09-19T00:05:07;10.40;;;6.97;;
79122;SDS011;68526;44.600;26.032;2023-09-19T00:05:24;9.53;;;6.63;;
79122;SDS011;68526;44.600;26.032;2023-09-19T00:05:40;9.48;;;6.68;;
79122;SDS011;68526;44.600;26.032;2023-09-19T00:05:59;10.23;;;6.88;;
79122;SDS011;68526;44.600;26.032;2023-09-19T00:06:16;10.45;;;7.70;;
79122;SDS011;68526;44.600;26.032;2023-09-19T00:06:32;13.40;;;8.00;;
79122;SDS011;68526;44.600;26.032;2023-09-19T00:06:48;11.43;;;7.18;;
79122;SDS011;68526;44.600;26.032;2023-09-19T00:07:04;9.75;;;7.10;;
79122;SDS011;68526;44.600;26.032;2023-09-19T00:07:19;10.48;;;6.95;;
79122;SDS011;68526;44.600;26.032;2023-09-19T00:07:36;7.97;;;6.55;;
79122;SDS011;68526;44.600;26.032;2023-09-19T00:07:53;7.90;;;6.95;;
79122;SDS011;68526;44.600;26.032;2023-09-19T00:08:11;8.55;;;6.82;;
79122;SDS011;68526;44.600;26.032;2023-09-19T00:08:28;9.98;;;7.22;;
79122;SDS011;68526;44.600;26.032;2023-09-19T00:08:44;9.95;;;7.63;;
79122;SDS011;68526;44.600;26.032;2023-09-19T00:09:00;8.67;;;6.90;;
79122;SDS011;68526;44.600;26.032;2023-09-19T00:09:16;8.13;;;6.68;;
79122;SDS011;68526;44.600;26.032;2023-09-19T00:09:31;8.40;;;6.75;;
79122;SDS011;68526;44.600;26.032;2023-09-19T00:09:52;10.88;;;7.10;;
79122;SDS011;68526;44.600;26.032;2023-09-19T00:10:11;9.40;;;6.63;;
79122;SDS011;68526;44.600;26.032;2023-09-19T00:10:30;8.15;;;6.68;;
79122;SDS011;68526;44.600;26.032;2023-09-19T00:10:50;9.15;;;7.10;;
79122;SDS011;68526;44.600;26.032;2023-09-19T00:11:05;8.55;;;7.25;;
79122;SDS011;68526;44.600;26.032;2023-09-19T00:11:23;8.25;;;7.07;;
79122;SDS011;68526;44.600;26.032;2023-09-19T00:11:41;8.50;;;6.60;;
79122;SDS011;68526;44.600;26.032;2023-09-19T00:11:57;8.18;;;6.50;;
79122;SDS011;68526;44.600;26.032;2023-09-19T00:12:12;8.30;;;6.40;;
79122;SDS011;68526;44.600;26.032;2023-09-19T00:12:29;8.63;;;6.85;;
79122;SDS011;68526;44.600;26.032;2023-09-19T00:12:45;8.75;;;6.80;;
79122;SDS011;68526;44.600;26.032;2023-09-19T00:13:01;7.90;;;6.80;;
79122;SDS011;68526;44.600;26.032;2023-09-19T00:13:20;7.88;;;6.63;;
79122;SDS011;68526;44.600;26.032;2023-09-19T00:13:36;8.02;;;6.35;;
79122;SDS011;68526;44.600;26.032;2023-09-19T00:13:53;9.10;;;6.83;;
79122;SDS011;68526;44.600;26.032;2023-09-19T00:14:09;10.38;;;7.00;;
79122;SDS011;68526;44.600;26.032;2023-09-19T00:14:25;9.87;;;6.80;;
79122;SDS011;68526;44.600;26.032;2023-09-19T00:14:41;11.38;;;6.72;;
79122;SDS011;68526;44.600;26.032;2023-09-19T00:14:57;12.13;;;6.85;;
79122;SDS011;68526;44.600;26.032;2023-09-19T00:15:13;10.02;;;7.13;;
79122;SDS011;68526;44.600;26.032;2023-09-19T00:15:36;9.77;;;7.13;;
79122;SDS011;68526;44.600;26.032;2023-09-19T00:15:54;8.93;;;6.82;;
79122;SDS011;68526;44.600;26.032;2023-09-19T00:16:10;10.27;;;7.00;;
79122;SDS011;68526;44.600;26.032;2023-09-19T00:16:27;9.57;;;6.78;;
79122;SDS011;68526;44.600;26.032;2023-09-19T00:16:42;9.43;;;6.63;;
79122;SDS011;68526;44.600;26.032;2023-09-19T00:16:58;10.18;;;6.43;;
79122;SDS011;68526;44.600;26.032;2023-09-19T00:17:15;10.55;;;6.68;;
79122;SDS011;68526;44.600;26.032;2023-09-19T00:17:31;9.77;;;6.75;;
79122;SDS011;68526;44.600;26.032;2023-09-19T00:17:47;9.88;;;6.65;;
79122;SDS011;68526;44.600;26.032;2023-09-19T00:18:04;9.55;;;6.65;;
79122;SDS011;68526;44.600;26.032;2023-09-19T00:18:21;9.43;;;6.93;;
79122;SDS011;68526;44.600;26.032;2023-09-19T00:18:39;8.57;;;6.82;;
79122;SDS011;68526;44.600;26.032;2023-09-19T00:18:55;9.93;;;6.85;;
79122;SDS011;68526;44.600;26.032;2023-09-19T00:19:11;10.02;;;6.93;;
79122;SDS011;68526;44.600;26.032;2023-09-19T00:19:26;9.23;;;7.07;;
79122;SDS011;68526;44.600;26.032;2023-09-19T00:19:42;9.52;;;7.18;;
79122;SDS011;68526;44.600;26.032;2023-09-19T00:19:59;9.60;;;7.25;;
79122;SDS011;68526;44.600;26.032;2023-09-19T00:20:22;9.88;;;7.13;;
79122;SDS011;68526;44.600;26.032;2023-09-19T00:20:38;9.80;;;6.97;;
79122;SDS011;68526;44.600;26.032;2023-09-19T00:20:56;9.55;;;6.80;;
79122;SDS011;68526;44.600;26.032;2023-09-19T00:21:12;9.90;;;6.80;;
79122;SDS011;68526;44.600;26.032;2023-09-19T00:21:28;10.23;;;6.60;;
79122;SDS011;68526;44.600;26.032;2023-09-19T00:21:48;10.60;;;6.55;;
79122;SDS011;68526;44.600;26.032;2023-09-19T00:22:03;10.82;;;6.93;;
79122;SDS011;68526;44.600;26.032;2023-09-19T00:22:19;9.30;;;7.18;;
79122;SDS011;68526;44.600;26.032;2023-09-19T00:22:35;9.48;;;7.03;;
79122;SDS011;68526;44.600;26.032;2023-09-19T00:22:55;9.95;;;6.80;;
79122;SDS011;68526;44.600;26.032;2023-09-19T00:23:10;10.20;;;6.95;;
79122;SDS011;68526;44.600;26.032;2023-09-19T00:23:26;11.88;;;7.28;;
79122;SDS011;68526;44.600;26.032;2023-09-19T00:23:43;11.85;;;7.32;;
79122;SDS011;68526;44.600;26.032;2023-09-19T00:24:00;9.02;;;7.00;;
79122;SDS011;68526;44.600;26.032;2023-09-19T00:24:15;10.43;;;6.93;;
79122;SDS011;68526;44.600;26.032;2023-09-19T00:24:33;10.77;;;7.13;;
79122;SDS011;68526;44.600;26.032;2023-09-19T00:24:49;11.05;;;7.20;;
79122;SDS011;68526;44.600;26.032;2023-09-19T00:25:06;10.07;;;6.90;;
79122;SDS011;68526;44.600;26.032;2023-09-19T00:25:23;9.10;;;7.13;;
79122;SDS011;68526;44.600;26.032;2023-09-19T00:25:40;9.23;;;7.25;;
79122;SDS011;68526;44.600;26.032;2023-09-19T00:25:58;9.35;;;7.13;;
79122;SDS011;68526;44.600;26.032;2023-09-19T00:26:14;10.38;;;7.03;;
79122;SDS011;68526;44.600;26.032;2023-09-19T00:26:30;9.43;;;7.00;;
79122;SDS011;68526;44.600;26.032;2023-09-19T00:26:47;10.60;;;7.25;;
79122;SDS011;68526;44.600;26.032;2023-09-19T00:27:03;11.57;;;7.35;;
79122;SDS011;68526;44.600;26.032;2023-09-19T00:27:20;9.80;;;7.30;;
79122;SDS011;68526;44.600;26.032;2023-09-19T00:27:37;9.10;;;7.20;;
79122;SDS011;68526;44.600;26.032;2023-09-19T00:27:56;9.18;;;6.90;;
79122;SDS011;68526;44.600;26.032;2023-09-19T00:28:13;9.63;;;7.05;;
79122;SDS011;68526;44.600;26.032;2023-09-19T00:28:31;9.23;;;7.03;;
79122;SDS011;68526;44.600;26.032;2023-09-19T00:28:47;8.50;;;7.07;;
79122;SDS011;68526;44.600;26.032;2023-09-19T00:29:03;9.38;;;6.97;;
79122;SDS011;68526;44.600;26.032;2023-09-19T00:29:19;9.05;;;6.70;;
79122;SDS011;68526;44.600;26.032;2023-09-19T00:29:36;8.55;;;6.68;;
79122;SDS011;68526;44.600;26.032;2023-09-19T00:29:52;9.45;;;6.68;;
79122;SDS011;68526;44.600;26.032;2023-09-19T00:30:08;9.35;;;6.82;;
79122;SDS011;68526;44.600;26.032;2023-09-19T00:30:29;9.40;;;6.80;;
79122;SDS011;68526;44.600;26.032;2023-09-19T00:30:45;10.13;;;7.20;;
79122;SDS011;68526;44.600;26.032;2023-09-19T00:31:07;9.18;;;7.10;;
79122;SDS011;68526;44.600;26.032;2023-09-19T00:31:23;10.23;;;7.10;;
79122;SDS011;68526;44.600;26.032;2023-09-19T00:31:40;9.00;;;7.03;;
79122;SDS011;68526;44.600;26.032;2023-09-19T00:31:58;9.50;;;7.30;;
79122;SDS011;68526;44.600;26.032;2023-09-19T00:32:14;10.23;;;7.30;;
79122;SDS011;68526;44.600;26.032;2023-09-19T00:32:30;9.75;;;7.18;;
79122;SDS011;68526;44.600;26.032;2023-09-19T00:32:46;9.40;;;7.22;;
79122;SDS011;68526;44.600;26.032;2023-09-19T00:33:03;8.70;;;7.13;;
79122;SDS011;68526;44.600;26.032;2023-09-19T00:33:22;11.30;;;6.95;;
79122;SDS011;68526;44.600;26.032;2023-09-19T00:33:39;11.98;;;6.93;;
79122;SDS011;68526;44.600;26.032;2023-09-19T00:33:55;10.07;;;6.90;;
79122;SDS011;68526;44.600;26.032;2023-09-19T00:34:13;10.82;;;6.55;;
79122;SDS011;68526;44.600;26.032;2023-09-19T00:34:30;11.00;;;6.85;;
79122;SDS011;68526;44.600;26.032;2023-09-19T00:34:49;10.05;;;7.10;;
79122;SDS011;68526;44.600;26.032;2023-09-19T00:35:05;9.20;;;6.80;;
79122;SDS011;68526;44.600;26.032;2023-09-19T00:35:23;8.32;;;6.90;;
79122;SDS011;68526;44.600;26.032;2023-09-19T00:35:40;10.07;;;6.85;;
79122;SDS011;68526;44.600;26.032;2023-09-19T00:36:02;9.88;;;7.03;;
79122;SDS011;68526;44.600;26.032;2023-09-19T00:36:20;9.48;;;7.10;;
79122;SDS011;68526;44.600;26.032;2023-09-19T00:36:36;9.10;;;6.90;;
79122;SDS011;68526;44.600;26.032;2023-09-19T00:36:53;9.27;;;7.28;;
79122;SDS011;68526;44.600;26.032;2023-09-19T00:37:09;10.67;;;7.20;;
79122;SDS011;68526;44.600;26.032;2023-09-19T00:37:26;10.45;;;6.90;;
79122;SDS011;68526;44.600;26.032;2023-09-19T00:37:42;9.02;;;6.72;;
79122;SDS011;68526;44.600;26.032;2023-09-19T00:37:59;9.18;;;6.93;;
79122;SDS011;68526;44.600;26.032;2023-09-19T00:38:15;9.23;;;7.28;;
79122;SDS011;68526;44.600;26.032;2023-09-19T00:38:32;11.15;;;6.97;;
79122;SDS011;68526;44.600;26.032;2023-09-19T00:38:48;11.37;;;6.63;;
79122;SDS011;68526;44.600;26.032;2023-09-19T00:39:03;10.65;;;6.78;;
79122;SDS011;68526;44.600;26.032;2023-09-19T00:39:20;11.43;;;6.93;;
79122;SDS011;68526;44.600;26.032;2023-09-19T00:39:37;9.07;;;6.75;;
79122;SDS011;68526;44.600;26.032;2023-09-19T00:39:52;8.82;;;6.68;;
79122;SDS011;68526;44.600;26.032;2023-09-19T00:40:10;9.00;;;7.18;;
79122;SDS011;68526;44.600;26.032;2023-09-19T00:40:28;10.52;;;7.15;;
79122;SDS011;68526;44.600;26.032;2023-09-19T00:40:45;10.85;;;7.03;;
79122;SDS011;68526;44.600;26.032;2023-09-19T00:41:01;9.02;;;7.05;;
79122;SDS011;68526;44.600;26.032;2023-09-19T00:41:17;10.52;;;6.97;;
79122;SDS011;68526;44.600;26.032;2023-09-19T00:41:33;10.52;;;6.90;;
79122;SDS011;68526;44.600;26.032;2023-09-19T00:41:50;9.95;;;6.93;;
79122;SDS011;68526;44.600;26.032;2023-09-19T00:42:06;10.17;;;6.90;;
79122;SDS011;68526;44.600;26.032;2023-09-19T00:42:23;9.63;;;7.20;;
79122;SDS011;68526;44.600;26.032;2023-09-19T00:42:41;10.35;;;7.40;;
79122;SDS011;68526;44.600;26.032;2023-09-19T00:42:57;9.52;;;6.93;;
79122;SDS011;68526;44.600;26.032;2023-09-19T00:43:15;8.23;;;6.80;;
79122;SDS011;68526;44.600;26.032;2023-09-19T00:43:32;10.80;;;7.22;;
79122;SDS011;68526;44.600;26.032;2023-09-19T00:43:49;10.98;;;7.18;;
79122;SDS011;68526;44.600;26.032;2023-09-19T00:44:06;9.13;;;7.00;;
79122;SDS011;68526;44.600;26.032;2023-09-19T00:44:22;9.85;;;7.10;;
79122;SDS011;68526;44.600;26.032;2023-09-19T00:44:39;9.85;;;6.90;;
79122;SDS011;68526;44.600;26.032;2023-09-19T00:44:55;10.07;;;7.05;;
79122;SDS011;68526;44.600;26.032;2023-09-19T00:45:12;11.25;;;7.38;;
79122;SDS011;68526;44.600;26.032;2023-09-19T00:45:29;10.68;;;7.20;;
79122;SDS011;68526;44.600;26.032;2023-09-19T00:45:48;9.88;;;7.40;;
79122;SDS011;68526;44.600;26.032;2023-09-19T00:46:06;8.73;;;7.15;;
79122;SDS011;68526;44.600;26.032;2023-09-19T00:46:22;9.18;;;7.28;;
79122;SDS011;68526;44.600;26.032;2023-09-19T00:46:38;10.27;;;7.33;;
79122;SDS011;68526;44.600;26.032;2023-09-19T00:46:54;10.60;;;6.97;;
79122;SDS011;68526;44.600;26.032;2023-09-19T00:47:10;10.45;;;6.80;;
79122;SDS011;68526;44.600;26.032;2023-09-19T00:47:31;9.60;;;6.93;;
79122;SDS011;68526;44.600;26.032;2023-09-19T00:47:48;8.90;;;6.90;;
79122;SDS011;68526;44.600;26.032;2023-09-19T00:48:06;8.70;;;6.70;;
79122;SDS011;68526;44.600;26.032;2023-09-19T00:48:24;9.25;;;6.90;;
79122;SDS011;68526;44.600;26.032;2023-09-19T00:48:43;8.50;;;7.13;;
79122;SDS011;68526;44.600;26.032;2023-09-19T00:49:00;8.13;;;6.80;;
79122;SDS011;68526;44.600;26.032;2023-09-19T00:49:16;9.75;;;7.15;;
79122;SDS011;68526;44.600;26.032;2023-09-19T00:49:32;10.82;;;7.38;;
79122;SDS011;68526;44.600;26.032;2023-09-19T00:49:48;11.10;;;7.30;;
79122;SDS011;68526;44.600;26.032;2023-09-19T00:50:08;10.63;;;7.15;;
79122;SDS011;68526;44.600;26.032;2023-09-19T00:50:26;10.10;;;7.00;;
79122;SDS011;68526;44.600;26.032;2023-09-19T00:50:42;11.47;;;7.20;;
79122;SDS011;68526;44.600;26.032;2023-09-19T00:50:59;10.73;;;7.10;;
79122;SDS011;68526;44.600;26.032;2023-09-19T00:51:19;8.90;;;6.83;;
79122;SDS011;68526;44.600;26.032;2023-09-19T00:51:36;10.13;;;6.97;;
79122;SDS011;68526;44.600;26.032;2023-09-19T00:51:52;10.20;;;6.93;;
79122;SDS011;68526;44.600;26.032;2023-09-19T00:52:10;9.15;;;6.45;;
79122;SDS011;68526;44.600;26.032;2023-09-19T00:52:27;9.30;;;6.45;;
79122;SDS011;68526;44.600;26.032;2023-09-19T00:52:43;9.57;;;6.93;;
79122;SDS011;68526;44.600;26.032;2023-09-19T00:53:01;8.95;;;6.95;;
79122;SDS011;68526;44.600;26.032;2023-09-19T00:53:21;8.95;;;7.03;;
79122;SDS011;68526;44.600;26.032;2023-09-19T00:53:40;9.40;;;7.07;;
79122;SDS011;68526;44.600;26.032;2023-09-19T00:54:01;10.27;;;6.70;;
79122;SDS011;68526;44.600;26.032;2023-09-19T00:54:19;11.30;;;6.85;;
79122;SDS011;68526;44.600;26.032;2023-09-19T00:54:35;10.77;;;7.13;;
79122;SDS011;68526;44.600;26.032;2023-09-19T00:54:51;10.38;;;7.25;;
79122;SDS011;68526;44.600;26.032;2023-09-19T00:55:07;9.75;;;7.10;;
79122;SDS011;68526;44.600;26.032;2023-09-19T00:55:25;10.32;;;6.93;;
79122;SDS011;68526;44.600;26.032;2023-09-19T00:55:42;10.00;;;7.22;;
79122;SDS011;68526;44.600;26.032;2023-09-19T00:55:59;9.38;;;7.35;;
79122;SDS011;68526;44.600;26.032;2023-09-19T00:56:16;9.00;;;6.97;;
79122;SDS011;68526;44.600;26.032;2023-09-19T00:56:33;8.52;;;7.10;;
79122;SDS011;68526;44.600;26.032;2023-09-19T00:56:49;9.10;;;7.35;;
79122;SDS011;68526;44.600;26.032;2023-09-19T00:57:06;13.45;;;7.68;;
79122;SDS011;68526;44.600;26.032;2023-09-19T00:57:23;13.18;;;7.65;;
79122;SDS011;68526;44.600;26.032;2023-09-19T00:57:39;9.23;;;7.03;;
79122;SDS011;68526;44.600;26.032;2023-09-19T00:57:55;8.50;;;6.90;;
79122;SDS011;68526;44.600;26.032;2023-09-19T00:58:12;9.55;;;7.20;;
79122;SDS011;68526;44.600;26.032;2023-09-19T00:58:28;13.07;;;8.10;;
79122;SDS011;68526;44.600;26.032;2023-09-19T00:58:48;12.23;;;7.40;;
79122;SDS011;68526;44.600;26.032;2023-09-19T00:59:04;10.88;;;6.95;;
79122;SDS011;68526;44.600;26.032;2023-09-19T00:59:20;10.13;;;7.20;;
79122;SDS011;68526;44.600;26.032;2023-09-19T00:59:37;9.85;;;7.28;;
79122;SDS011;68526;44.600;26.032;2023-09-19T00:59:53;11.65;;;7.10;;
79122;SDS011;68526;44.600;26.032;2023-09-19T01:00:12;11.70;;;7.25;;
79122;SDS011;68526;44.600;26.032;2023-09-19T01:00:30;8.70;;;7.20;;
79122;SDS011;68526;44.600;26.032;2023-09-19T01:00:49;10.27;;;7.35;;
79122;SDS011;68526;44.600;26.032;2023-09-19T01:01:06;8.93;;;7.03;;
79122;SDS011;68526;44.600;26.032;2023-09-19T01:01:22;8.45;;;7.10;;
79122;SDS011;68526;44.600;26.032;2023-09-19T01:01:40;9.15;;;7.25;;
79122;SDS011;68526;44.600;26.032;2023-09-19T01:01:56;10.77;;;7.05;;
79122;SDS011;68526;44.600;26.032;2023-09-19T01:02:11;10.68;;;7.25;;
79122;SDS011;68526;44.600;26.032;2023-09-19T01:02:29;9.95;;;7.72;;
79122;SDS011;68526;44.600;26.032;2023-09-19T01:02:45;9.90;;;7.35;;
79122;SDS011;68526;44.600;26.032;2023-09-19T01:03:02;9.15;;;7.22;;
79122;SDS011;68526;44.600;26.032;2023-09-19T01:03:19;9.95;;;7.38;;
79122;SDS011;68526;44.600;26.032;2023-09-19T01:03:36;10.48;;;7.50;;
79122;SDS011;68526;44.600;26.032;2023-09-19T01:03:52;10.68;;;7.15;;
79122;SDS011;68526;44.600;26.032;2023-09-19T01:04:08;10.65;;;7.00;;
79122;SDS011;68526;44.600;26.032;2023-09-19T01:04:24;11.38;;;7.43;;
79122;SDS011;68526;44.600;26.032;2023-09-19T01:04:40;10.43;;;7.40;;
79122;SDS011;68526;44.600;26.032;2023-09-19T01:04:56;10.10;;;7.20;;
79122;SDS011;68526;44.600;26.032;2023-09-19T01:05:13;10.65;;;7.22;;
79122;SDS011;68526;44.600;26.032;2023-09-19T01:05:30;9.55;;;7.38;;
79122;SDS011;68526;44.600;26.032;2023-09-19T01:05:46;9.32;;;7.07;;
79122;SDS011;68526;44.600;26.032;2023-09-19T01:06:02;10.57;;;7.10;;
79122;SDS011;68526;44.600;26.032;2023-09-19T01:06:18;10.52;;;7.18;;
79122;SDS011;68526;44.600;26.032;2023-09-19T01:06:34;9.60;;;7.32;;
79122;SDS011;68526;44.600;26.032;2023-09-19T01:06:51;9.90;;;7.43;;
79122;SDS011;68526;44.600;26.032;2023-09-19T01:07:08;10.10;;;7.43;;
79122;SDS011;68526;44.600;26.032;2023-09-19T01:07:24;12.18;;;7.53;;
79122;SDS011;68526;44.600;26.032;2023-09-19T01:07:41;13.02;;;7.80;;
79122;SDS011;68526;44.600;26.032;2023-09-19T01:07:57;10.35;;;7.30;;
79122;SDS011;68526;44.600;26.032;2023-09-19T01:08:13;9.32;;;6.95;;
79122;SDS011;68526;44.600;26.032;2023-09-19T01:08:29;10.40;;;7.23;;
79122;SDS011;68526;44.600;26.032;2023-09-19T01:08:46;9.35;;;7.20;;
79122;SDS011;68526;44.600;26.032;2023-09-19T01:09:02;10.20;;;7.55;;
79122;SDS011;68526;44.600;26.032;2023-09-19T01:09:19;10.75;;;7.68;;
79122;SDS011;68526;44.600;26.032;2023-09-19T01:09:36;11.02;;;7.32;;
79122;SDS011;68526;44.600;26.032;2023-09-19T01:09:51;11.27;;;7.60;;
79122;SDS011;68526;44.600;26.032;2023-09-19T01:10:09;9.52;;;7.15;;
79122;SDS011;68526;44.600;26.032;2023-09-19T01:10:30;8.57;;;6.63;;
79122;SDS011;68526;44.600;26.032;2023-09-19T01:10:51;9.70;;;7.15;;
79122;SDS011;68526;44.600;26.032;2023-09-19T01:11:11;9.65;;;7.25;;
79122;SDS011;68526;44.600;26.032;2023-09-19T01:11:36;9.75;;;7.63;;
79122;SDS011;68526;44.600;26.032;2023-09-19T01:11:58;9.68;;;6.97;;
79122;SDS011;68526;44.600;26.032;2023-09-19T01:12:18;9.75;;;6.88;;
79122;SDS011;68526;44.600;26.032;2023-09-19T01:12:45;9.40;;;7.10;;
79122;SDS011;68526;44.600;26.032;2023-09-19T01:13:08;11.50;;;7.50;;
79122;SDS011;68526;44.600;26.032;2023-09-19T01:13:41;10.05;;;7.28;;
79122;SDS011;68526;44.600;26.032;2023-09-19T01:14:06;9.13;;;7.55;;
79122;SDS011;68526;44.600;26.032;2023-09-19T01:14:35;10.50;;;7.97;;
79122;SDS011;68526;44.600;26.032;2023-09-19T01:14:59;9.57;;;7.07;;
79122;SDS011;68526;44.600;26.032;2023-09-19T01:15:24;8.32;;;6.70;;
79122;SDS011;68526;44.600;26.032;2023-09-19T01:15:49;10.35;;;7.32;;
79122;SDS011;68526;44.600;26.032;2023-09-19T01:16:19;11.27;;;7.35;;
79122;SDS011;68526;44.600;26.032;2023-09-19T01:16:44;11.93;;;7.70;;
79122;SDS011;68526;44.600;26.032;2023-09-19T01:17:12;10.35;;;7.50;;
79122;SDS011;68526;44.600;26.032;2023-09-19T01:17:32;10.23;;;7.55;;
79122;SDS011;68526;44.600;26.032;2023-09-19T01:17:57;8.85;;;7.40;;
79122;SDS011;68526;44.600;26.032;2023-09-19T01:18:20;9.32;;;7.47;;
79122;SDS011;68526;44.600;26.032;2023-09-19T01:18:43;10.20;;;7.30;;
79122;SDS011;68526;44.600;26.032;2023-09-19T01:19:12;9.77;;;7.55;;
79122;SDS011;68526;44.600;26.032;2023-09-19T01:20:02;10.40;;;7.43;;
79122;SDS011;68526;44.600;26.032;2023-09-19T01:20:27;9.10;;;7.22;;
79122;SDS011;68526;44.600;26.032;2023-09-19T01:20:53;10.73;;;7.47;;
79122;SDS011;68526;44.600;26.032;2023-09-19T01:21:15;9.45;;;7.57;;
79122;SDS011;68526;44.600;26.032;2023-09-19T01:21:42;10.00;;;7.55;;
79122;SDS011;68526;44.600;26.032;2023-09-19T01:22:11;10.30;;;7.60;;
79122;SDS011;68526;44.600;26.032;2023-09-19T01:22:35;9.63;;;7.38;;
79122;SDS011;68526;44.600;26.032;2023-09-19T01:23:05;10.98;;;7.75;;
79122;SDS011;68526;44.600;26.032;2023-09-19T01:23:29;9.38;;;6.97;;
79122;SDS011;68526;44.600;26.032;2023-09-19T01:24:10;10.95;;;7.50;;
79122;SDS011;68526;44.600;26.032;2023-09-19T01:26:02;10.50;;;7.40;;
79122;SDS011;68526;44.600;26.032;2023-09-19T01:26:28;9.70;;;7.63;;
79122;SDS011;68526;44.600;26.032;2023-09-19T01:26:56;9.77;;;7.30;;
79122;SDS011;68526;44.600;26.032;2023-09-19T01:27:46;9.07;;;7.43;;
79122;SDS011;68526;44.600;26.032;2023-09-19T01:28:30;10.30;;;7.30;;
79122;SDS011;68526;44.600;26.032;2023-09-19T01:28:52;10.02;;;7.32;;
79122;SDS011;68526;44.600;26.032;2023-09-19T01:29:15;11.05;;;7.40;;
79122;SDS011;68526;44.600;26.032;2023-09-19T01:29:45;10.40;;;7.80;;
79122;SDS011;68526;44.600;26.032;2023-09-19T01:30:09;9.52;;;7.32;;
79122;SDS011;68526;44.600;26.032;2023-09-19T01:30:26;9.20;;;7.35;;
79122;SDS011;68526;44.600;26.032;2023-09-19T01:30:47;9.27;;;7.35;;
79122;SDS011;68526;44.600;26.032;2023-09-19T01:31:13;10.30;;;7.78;;
79122;SDS011;68526;44.600;26.032;2023-09-19T01:31:31;10.80;;;7.90;;
79122;SDS011;68526;44.600;26.032;2023-09-19T01:31:51;12.45;;;8.13;;
79122;SDS011;68526;44.600;26.032;2023-09-19T01:32:10;11.25;;;7.63;;
79122;SDS011;68526;44.600;26.032;2023-09-19T01:32:29;10.95;;;7.60;;
79122;SDS011;68526;44.600;26.032;2023-09-19T01:32:47;11.32;;;7.47;;
79122;SDS011;68526;44.600;26.032;2023-09-19T01:33:07;11.35;;;7.47;;
79122;SDS011;68526;44.600;26.032;2023-09-19T01:33:25;11.60;;;7.78;;
79122;SDS011;68526;44.600;26.032;2023-09-19T01:33:54;9.83;;;7.90;;
79122;SDS011;68526;44.600;26.032;2023-09-19T01:34:12;10.32;;;7.63;;
79122;SDS011;68526;44.600;26.032;2023-09-19T01:34:42;10.85;;;7.07;;
79122;SDS011;68526;44.600;26.032;2023-09-19T01:35:00;11.23;;;7.65;;
79122;SDS011;68526;44.600;26.032;2023-09-19T01:35:19;10.60;;;7.47;;
79122;SDS011;68526;44.600;26.032;2023-09-19T01:35:35;10.17;;;7.57;;
79122;SDS011;68526;44.600;26.032;2023-09-19T01:35:54;10.27;;;7.78;;
79122;SDS011;68526;44.600;26.032;2023-09-19T01:36:12;11.82;;;7.65;;
79122;SDS011;68526;44.600;26.032;2023-09-19T01:36:29;12.23;;;7.68;;
79122;SDS011;68526;44.600;26.032;2023-09-19T01:36:49;10.47;;;7.57;;
79122;SDS011;68526;44.600;26.032;2023-09-19T01:37:05;9.52;;;7.53;;
79122;SDS011;68526;44.600;26.032;2023-09-19T01:37:21;9.35;;;7.57;;
79122;SDS011;68526;44.600;26.032;2023-09-19T01:37:40;9.20;;;7.57;;
79122;SDS011;68526;44.600;26.032;2023-09-19T01:37:58;9.23;;;7.38;;
79122;SDS011;68526;44.600;26.032;2023-09-19T01:38:14;10.50;;;7.35;;
79122;SDS011;68526;44.600;26.032;2023-09-19T01:38:30;11.88;;;7.68;;
79122;SDS011;68526;44.600;26.032;2023-09-19T01:38:47;11.05;;;7.93;;
79122;SDS011;68526;44.600;26.032;2023-09-19T01:39:04;9.93;;;7.70;;
79122;SDS011;68526;44.600;26.032;2023-09-19T01:39:25;10.25;;;7.78;;
79122;SDS011;68526;44.600;26.032;2023-09-19T01:39:41;9.07;;;7.63;;
79122;SDS011;68526;44.600;26.032;2023-09-19T01:39:58;9.07;;;7.67;;
79122;SDS011;68526;44.600;26.032;2023-09-19T01:40:19;9.50;;;7.38;;
79122;SDS011;68526;44.600;26.032;2023-09-19T01:40:41;10.48;;;7.50;;
79122;SDS011;68526;44.600;26.032;2023-09-19T01:40:59;10.10;;;7.57;;
79122;SDS011;68526;44.600;26.032;2023-09-19T01:41:26;10.90;;;7.95;;
79122;SDS011;68526;44.600;26.032;2023-09-19T01:41:58;11.70;;;7.63;;
79122;SDS011;68526;44.600;26.032;2023-09-19T01:42:27;10.48;;;8.10;;
79122;SDS011;68526;44.600;26.032;2023-09-19T01:42:54;10.02;;;7.47;;
79122;SDS011;68526;44.600;26.032;2023-09-19T01:43:17;9.77;;;7.47;;
79122;SDS011;68526;44.600;26.032;2023-09-19T01:43:39;10.18;;;8.10;;
79122;SDS011;68526;44.600;26.032;2023-09-19T01:43:58;10.32;;;8.02;;
79122;SDS011;68526;44.600;26.032;2023-09-19T01:44:21;9.40;;;7.68;;
79122;SDS011;68526;44.600;26.032;2023-09-19T01:45:22;11.15;;;8.02;;
79122;SDS011;68526;44.600;26.032;2023-09-19T01:46:21;9.93;;;7.72;;
79122;SDS011;68526;44.600;26.032;2023-09-19T01:46:41;9.82;;;7.88;;
79122;SDS011;68526;44.600;26.032;2023-09-19T01:46:58;9.20;;;7.65;;
79122;SDS011;68526;44.600;26.032;2023-09-19T01:47:23;9.80;;;7.95;;
79122;SDS011;68526;44.600;26.032;2023-09-19T01:47:46;8.90;;;7.43;;
79122;SDS011;68526;44.600;26.032;2023-09-19T01:48:10;10.05;;;7.30;;
79122;SDS011;68526;44.600;26.032;2023-09-19T01:48:35;10.60;;;7.40;;
79122;SDS011;68526;44.600;26.032;2023-09-19T01:48:58;10.45;;;7.47;;
79122;SDS011;68526;44.600;26.032;2023-09-19T01:49:27;11.32;;;8.00;;
79122;SDS011;68526;44.600;26.032;2023-09-19T01:49:53;10.32;;;7.55;;
79122;SDS011;68526;44.600;26.032;2023-09-19T01:50:17;11.70;;;7.85;;
79122;SDS011;68526;44.600;26.032;2023-09-19T01:50:44;10.90;;;7.43;;
79122;SDS011;68526;44.600;26.032;2023-09-19T01:51:08;10.88;;;7.53;;
79122;SDS011;68526;44.600;26.032;2023-09-19T01:52:02;13.43;;;7.82;;
79122;SDS011;68526;44.600;26.032;2023-09-19T01:52:28;11.60;;;8.20;;
79122;SDS011;68526;44.600;26.032;2023-09-19T01:52:51;9.52;;;7.40;;
79122;SDS011;68526;44.600;26.032;2023-09-19T01:53:13;11.43;;;8.48;;
79122;SDS011;68526;44.600;26.032;2023-09-19T01:53:41;11.85;;;7.85;;
79122;SDS011;68526;44.600;26.032;2023-09-19T01:54:08;10.80;;;7.57;;
79122;SDS011;68526;44.600;26.032;2023-09-19T01:54:33;10.68;;;7.90;;
79122;SDS011;68526;44.600;26.032;2023-09-19T01:54:56;12.63;;;8.30;;